Time;durP1;ratioP1;P1;durP2;ratioP2;P2;SDS_P1;SDS_P2;PMS_P1;PMS_P2;Temp;Humidity;BMP_temperature;BMP_pressure;BME280_temperature;BME280_humidity;BME280_pressure;Samples;Min_cycle;Max_cycle;Signal;HPM_P1;HPM_P2
2021/07/05 00:01:10;;;;;;;;;;;14.80;99.90;;;;;;5044569;28;19945;-62
2021/07/05 00:03:59;;;;;;;;;;;14.80;99.90;;;;;;5052354;28;19947;-62
2021/07/05 00:06:48;;;;;;;;;;;14.70;99.90;;;;;;5053299;28;20036;-62
2021/07/05 00:09:37;;;;;;;;;;;14.80;99.90;;;;;;5058297;28;19947;-62
2021/07/05 00:12:30;;;;;;;;;;;14.70;99.90;;;;;;5054908;28;20015;-61
2021/07/05 00:15:20;;;;;;;;;;;14.70;99.90;;;;;;5053706;28;19925;-61
2021/07/05 00:18:10;;;;;;;;;;;14.70;99.90;;;;;;5059221;28;19925;-62
2021/07/05 00:20:58;;;;;;;;;;;14.70;99.90;;;;;;5066209;28;19925;-62
2021/07/05 00:23:48;;;;;;;;;;;14.70;99.90;;;;;;5049627;28;19971;-62
2021/07/05 00:26:36;;;;;;;;;;;14.70;99.90;;;;;;5047826;28;19943;-62
2021/07/05 00:29:26;;;;;;;;;;;14.70;99.90;;;;;;5053204;28;19985;-61
2021/07/05 00:32:39;;;;;;;;;;;14.60;99.90;;;;;;5045738;28;19924;-62
2021/07/05 00:35:29;;;;;;;;;;;14.60;99.90;;;;;;5052505;28;19932;-62
2021/07/05 00:38:17;;;;;;;;;;;14.70;99.90;;;;;;5055274;28;19956;-62
2021/07/05 00:41:06;;;;;;;;;;;14.80;99.90;;;;;;5052840;28;19924;-61
2021/07/05 00:43:56;;;;;;;;;;;14.80;99.90;;;;;;5049310;28;19971;-62
2021/07/05 00:46:46;;;;;;;;;;;14.70;99.90;;;;;;5048234;28;19931;-62
2021/07/05 00:49:35;;;;;;;;;;;14.70;99.90;;;;;;5051827;28;19940;-62
2021/07/05 00:52:24;;;;;;;;;;;14.70;99.90;;;;;;5036375;28;20074;-62
2021/07/05 00:55:14;;;;;;;;;;;14.70;99.90;;;;;;5048953;28;19932;-62
2021/07/05 00:58:02;;;;;;;;;;;14.70;99.90;;;;;;5056038;28;19925;-61
2021/07/05 01:00:51;;;;;;;;;;;14.60;99.90;;;;;;5044813;28;19929;-63
2021/07/05 01:03:41;;;;;;;;;;;14.60;99.90;;;;;;5048244;28;19931;-61
2021/07/05 01:06:30;;;;;;;;;;;14.60;99.90;;;;;;5047688;28;19929;-63
2021/07/05 01:09:21;;;;;;;;;;;14.60;99.90;;;;;;5054208;28;20388;-62
2021/07/05 01:12:10;;;;;;;;;;;14.70;99.90;;;;;;5052282;28;19925;-62
2021/07/05 01:15:00;;;;;;;;;;;14.70;99.90;;;;;;5052327;28;19932;-61
2021/07/05 01:17:48;;;;;;;;;;;14.70;99.90;;;;;;5055155;28;20303;-62
2021/07/05 01:20:39;;;;;;;;;;;14.70;99.90;;;;;;5057210;28;20022;-61
2021/07/05 01:23:30;;;;;;;;;;;14.70;99.90;;;;;;5056874;28;20013;-62
2021/07/05 01:26:19;;;;;;;;;;;14.60;99.90;;;;;;5054360;28;19932;-65
2021/07/05 01:29:08;;;;;;;;;;;14.60;99.90;;;;;;5058572;28;20015;-62
2021/07/05 01:31:56;;;;;;;;;;;14.50;99.90;;;;;;5052078;28;19995;-62
2021/07/05 01:34:45;;;;;;;;;;;14.40;99.90;;;;;;5052586;28;19928;-62
2021/07/05 01:37:34;;;;;;;;;;;14.40;99.90;;;;;;5056187;28;20015;-62
2021/07/05 01:40:23;;;;;;;;;;;14.40;99.90;;;;;;5055411;28;20081;-61
2021/07/05 01:43:15;;;;;;;;;;;14.30;99.90;;;;;;5053056;28;20055;-61
2021/07/05 01:46:03;;;;;;;;;;;14.20;99.90;;;;;;5033629;28;19929;-62
2021/07/05 01:48:52;;;;;;;;;;;14.20;99.90;;;;;;5027598;28;19936;-61
2021/07/05 01:51:40;;;;;;;;;;;14.10;99.90;;;;;;5032169;28;20076;-62
2021/07/05 01:54:29;;;;;;;;;;;14.10;99.90;;;;;;5029982;28;19980;-62
2021/07/05 01:57:25;;;;;;;;;;;14.00;99.90;;;;;;5025710;28;20013;-61
2021/07/05 02:00:16;;;;;;;;;;;14.00;99.90;;;;;;5008419;28;20316;-62
2021/07/05 02:03:05;;;;;;;;;;;14.00;99.90;;;;;;5013776;28;19925;-62
2021/07/05 02:05:53;;;;;;;;;;;13.90;99.90;;;;;;5012367;28;20668;-62
2021/07/05 02:08:42;;;;;;;;;;;13.90;99.90;;;;;;5014651;28;19932;-62
2021/07/05 02:11:55;;;;;;;;;;;13.90;99.90;;;;;;5007917;28;19972;-62
2021/07/05 02:14:45;;;;;;;;;;;13.90;99.90;;;;;;5014075;28;19928;-62
2021/07/05 02:17:34;;;;;;;;;;;13.80;99.90;;;;;;5026997;28;19925;-61
2021/07/05 02:20:25;;;;;;;;;;;13.80;99.90;;;;;;5027517;28;20296;-62
2021/07/05 02:23:15;;;;;;;;;;;13.80;99.90;;;;;;5030551;28;19929;-62
2021/07/05 02:26:05;;;;;;;;;;;13.80;99.90;;;;;;5030463;28;19940;-62
2021/07/05 02:28:53;;;;;;;;;;;13.80;99.90;;;;;;5029024;28;19925;-61
2021/07/05 02:31:43;;;;;;;;;;;13.70;99.90;;;;;;5022376;28;20404;-61
2021/07/05 02:34:32;;;;;;;;;;;13.80;99.90;;;;;;5032938;28;19925;-61
2021/07/05 02:37:20;;;;;;;;;;;13.80;99.90;;;;;;5030874;28;19932;-62
2021/07/05 02:40:10;;;;;;;;;;;13.80;99.90;;;;;;5030736;28;20011;-62
2021/07/05 02:43:03;;;;;;;;;;;13.90;99.90;;;;;;5031604;28;19925;-62
2021/07/05 02:45:53;;;;;;;;;;;13.80;99.90;;;;;;5030690;28;19924;-62
2021/07/05 02:48:43;;;;;;;;;;;13.80;99.90;;;;;;5051453;28;20071;-61
2021/07/05 02:51:32;;;;;;;;;;;13.80;99.90;;;;;;5051394;28;19924;-62
2021/07/05 02:54:21;;;;;;;;;;;13.80;99.90;;;;;;5051303;28;19924;-62
2021/07/05 02:57:28;;;;;;;;;;;13.70;99.90;;;;;;5052404;28;19924;-63
2021/07/05 03:00:18;;;;;;;;;;;13.80;99.90;;;;;;5047422;28;20025;-62
2021/07/05 03:03:07;;;;;;;;;;;13.90;99.90;;;;;;5053404;28;19924;-62
2021/07/05 03:05:58;;;;;;;;;;;13.80;99.90;;;;;;5049599;28;20425;-62
2021/07/05 03:08:46;;;;;;;;;;;13.70;99.90;;;;;;5053535;28;20059;-62
2021/07/05 03:12:00;;;;;;;;;;;13.70;99.90;;;;;;5052241;28;20623;-62
2021/07/05 03:14:48;;;;;;;;;;;13.60;99.90;;;;;;5052735;28;19924;-62
2021/07/05 03:17:37;;;;;;;;;;;13.60;99.90;;;;;;5050814;28;19925;-61
2021/07/05 03:20:28;;;;;;;;;;;13.70;99.90;;;;;;5051246;28;20312;-62
2021/07/05 03:23:18;;;;;;;;;;;13.60;99.90;;;;;;5053448;28;19925;-62
2021/07/05 03:26:07;;;;;;;;;;;13.70;99.90;;;;;;5050863;28;19925;-63
2021/07/05 03:28:57;;;;;;;;;;;13.60;99.90;;;;;;5052765;28;19931;-62
2021/07/05 03:31:45;;;;;;;;;;;13.60;99.90;;;;;;5047289;28;20031;-62
2021/07/05 03:34:34;;;;;;;;;;;13.50;99.90;;;;;;5050598;28;20300;-62
2021/07/05 03:37:28;;;;;;;;;;;13.50;99.90;;;;;;5047179;28;19925;-62
2021/07/05 03:40:19;;;;;;;;;;;13.50;99.90;;;;;;5051249;28;20263;-62
2021/07/05 03:43:08;;;;;;;;;;;13.50;99.90;;;;;;5049471;28;19936;-62
2021/07/05 03:45:57;;;;;;;;;;;13.60;99.90;;;;;;5047496;28;20292;-61
2021/07/05 03:48:45;;;;;;;;;;;13.60;99.90;;;;;;5043143;28;20019;-61
2021/07/05 03:51:33;;;;;;;;;;;13.60;99.90;;;;;;5050640;28;19935;-61
2021/07/05 03:54:22;;;;;;;;;;;13.60;99.90;;;;;;5037850;28;20344;-62
2021/07/05 03:57:22;;;;;;;;;;;13.60;99.90;;;;;;5051956;28;19932;-63
2021/07/05 04:00:12;;;;;;;;;;;13.60;99.90;;;;;;5048804;28;20070;-62
2021/07/05 04:03:01;;;;;;;;;;;13.70;99.90;;;;;;5049327;28;19928;-61
2021/07/05 04:05:51;;;;;;;;;;;13.80;99.90;;;;;;5037808;28;19928;-62
2021/07/05 04:08:39;;;;;;;;;;;13.90;99.90;;;;;;5045805;28;20624;-62
2021/07/05 04:11:30;;;;;;;;;;;13.90;99.90;;;;;;5052342;28;19925;-62
2021/07/05 04:14:45;;;;;;;;;;;13.90;99.90;;;;;;5044960;28;19937;-62
2021/07/05 04:17:34;;;;;;;;;;;13.90;99.90;;;;;;5064379;28;19925;-61
2021/07/05 04:20:24;;;;;;;;;;;14.00;99.90;;;;;;5041542;28;19925;-62
2021/07/05 04:23:12;;;;;;;;;;;14.10;99.90;;;;;;5040471;28;19939;-62
2021/07/05 04:26:02;;;;;;;;;;;14.20;99.90;;;;;;5052440;28;19924;-62
2021/07/05 04:28:51;;;;;;;;;;;14.40;99.90;;;;;;5056281;28;19925;-62
2021/07/05 04:31:41;;;;;;;;;;;14.60;99.90;;;;;;5041137;28;19924;-61
2021/07/05 04:34:29;;;;;;;;;;;14.70;99.90;;;;;;5049879;28;19932;-62
2021/07/05 04:37:18;;;;;;;;;;;14.80;99.90;;;;;;5046052;28;19925;-62
2021/07/05 04:40:07;;;;;;;;;;;14.80;99.90;;;;;;5047442;28;19947;-62
2021/07/05 04:43:03;;;;;;;;;;;14.90;99.90;;;;;;5058832;28;20388;-62
2021/07/05 04:45:54;;;;;;;;;;;14.80;99.90;;;;;;5051137;28;19925;-62
2021/07/05 04:48:45;;;;;;;;;;;14.70;99.90;;;;;;5057504;28;19928;-62
2021/07/05 04:51:34;;;;;;;;;;;14.60;99.90;;;;;;5057764;28;20033;-62
2021/07/05 04:54:22;;;;;;;;;;;14.70;99.90;;;;;;5053939;28;20003;-62
2021/07/05 04:57:11;;;;;;;;;;;15.00;99.90;;;;;;5057410;28;19929;-61
2021/07/05 05:00:00;;;;;;;;;;;15.10;99.90;;;;;;5058416;28;19948;-62
2021/07/05 05:02:49;;;;;;;;;;;15.10;99.90;;;;;;5058537;28;20306;-62
2021/07/05 05:05:40;;;;;;;;;;;15.30;99.90;;;;;;5065534;28;20400;-62
2021/07/05 05:08:29;;;;;;;;;;;15.50;99.90;;;;;;5051606;28;20011;-61
2021/07/05 05:11:17;;;;;;;;;;;15.20;99.90;;;;;;5054213;28;19925;-61
2021/07/05 05:14:07;;;;;;;;;;;15.30;99.90;;;;;;5051861;28;19931;-62
2021/07/05 05:20:09;;;;;;;;;;;15.70;99.90;;;;;;5050462;28;19925;-62
2021/07/05 05:22:59;;;;;;;;;;;16.00;99.90;;;;;;5052161;28;20019;-62
2021/07/05 05:25:47;;;;;;;;;;;16.10;99.90;;;;;;5055748;28;19925;-62
2021/07/05 05:28:39;;;;;;;;;;;16.30;99.90;;;;;;5053849;28;20076;-62
2021/07/05 05:31:27;;;;;;;;;;;16.40;99.90;;;;;;5051505;28;20348;-62
2021/07/05 05:34:20;;;;;;;;;;;16.50;99.90;;;;;;5054995;28;19929;-62
2021/07/05 05:37:09;;;;;;;;;;;16.60;99.90;;;;;;5057880;28;19925;-62
2021/07/05 05:39:59;;;;;;;;;;;16.70;99.90;;;;;;5050436;28;20516;-63
2021/07/05 05:42:47;;;;;;;;;;;17.30;99.90;;;;;;5054206;28;19929;-60
2021/07/05 05:45:37;;;;;;;;;;;17.20;99.90;;;;;;5052596;28;19924;-60
2021/07/05 05:48:25;;;;;;;;;;;17.10;99.90;;;;;;5058262;28;19928;-61
2021/07/05 05:51:14;;;;;;;;;;;16.90;99.90;;;;;;5049175;28;19939;-61
2021/07/05 05:54:06;;;;;;;;;;;16.80;99.90;;;;;;5055005;28;19928;-64
2021/07/05 05:56:56;;;;;;;;;;;17.30;99.90;;;;;;5045747;28;20574;-61
2021/07/05 05:59:44;;;;;;;;;;;18.10;99.90;;;;;;5048184;28;19964;-60
2021/07/05 06:02:33;;;;;;;;;;;18.50;99.90;;;;;;5050122;28;19925;-60
2021/07/05 06:05:22;;;;;;;;;;;18.80;99.90;;;;;;5057340;28;19925;-61
2021/07/05 06:08:11;;;;;;;;;;;18.80;99.90;;;;;;5064337;28;19987;-62
2021/07/05 06:11:00;;;;;;;;;;;19.00;99.90;;;;;;5056328;28;19924;-61
2021/07/05 06:13:50;;;;;;;;;;;19.30;99.90;;;;;;5051444;28;19978;-61
2021/07/05 06:16:39;;;;;;;;;;;18.80;99.90;;;;;;5047667;28;20011;-61
2021/07/05 06:19:28;;;;;;;;;;;19.10;99.90;;;;;;5066108;28;19933;-62
2021/07/05 06:22:18;;;;;;;;;;;18.40;99.90;;;;;;5058481;28;19928;-62
2021/07/05 06:25:07;;;;;;;;;;;18.40;99.90;;;;;;5055491;28;20355;-62
2021/07/05 06:27:56;;;;;;;;;;;18.50;99.90;;;;;;5057830;28;20066;-62
2021/07/05 06:30:46;;;;;;;;;;;18.10;99.90;;;;;;5050508;28;20050;-62
2021/07/05 06:33:37;;;;;;;;;;;18.10;99.90;;;;;;5050972;28;19928;-62
2021/07/05 06:36:25;;;;;;;;;;;18.00;99.90;;;;;;5036290;28;20003;-62
2021/07/05 06:39:16;;;;;;;;;;;18.30;99.90;;;;;;5059311;28;19929;-62
2021/07/05 06:42:05;;;;;;;;;;;18.80;99.90;;;;;;5068088;28;19935;-62
2021/07/05 06:44:54;;;;;;;;;;;19.40;99.90;;;;;;5061022;28;20345;-62
2021/07/05 06:47:44;;;;;;;;;;;19.40;99.90;;;;;;5046424;28;19986;-62
2021/07/05 06:50:35;;;;;;;;;;;19.00;99.90;;;;;;5042881;28;20509;-62
2021/07/05 06:53:23;;;;;;;;;;;18.80;99.90;;;;;;5043715;28;19940;-62
2021/07/05 06:56:12;;;;;;;;;;;18.80;99.90;;;;;;5038068;28;19963;-62
2021/07/05 06:59:00;;;;;;;;;;;19.00;99.90;;;;;;5037213;28;19939;-65
2021/07/05 07:01:49;;;;;;;;;;;18.40;99.90;;;;;;5041828;28;20090;-62
2021/07/05 07:04:39;;;;;;;;;;;18.40;99.90;;;;;;5053711;28;19946;-61
2021/07/05 07:07:28;;;;;;;;;;;18.50;99.90;;;;;;5053283;28;19943;-62
2021/07/05 07:10:17;;;;;;;;;;;18.60;99.90;;;;;;5052126;28;19982;-62
2021/07/05 07:13:06;;;;;;;;;;;18.70;99.90;;;;;;5052453;28;19925;-62
2021/07/05 07:16:04;;;;;;;;;;;18.70;99.90;;;;;;5041642;28;19924;-62
2021/07/05 07:19:08;;;;;;;;;;;18.90;99.90;;;;;;5047610;28;19963;-62
2021/07/05 07:22:02;;;;;;;;;;;18.40;99.90;;;;;;5043050;28;19938;-62
2021/07/05 07:24:51;;;;;;;;;;;18.30;99.90;;;;;;5031445;28;20022;-62
2021/07/05 07:27:39;;;;;;;;;;;18.10;99.90;;;;;;5045798;28;20563;-62
2021/07/05 07:30:28;;;;;;;;;;;18.30;99.90;;;;;;5034101;28;19955;-62
2021/07/05 07:33:20;;;;;;;;;;;18.20;99.90;;;;;;5034592;28;20399;-62
2021/07/05 07:36:10;;;;;;;;;;;18.30;99.90;;;;;;5047245;28;19955;-62
2021/07/05 07:39:04;;;;;;;;;;;18.60;99.90;;;;;;5037835;28;19950;-62
2021/07/05 07:41:52;;;;;;;;;;;19.00;99.90;;;;;;5044748;28;20386;-62
2021/07/05 07:44:41;;;;;;;;;;;19.30;99.90;;;;;;5046567;28;19933;-62
2021/07/05 07:47:30;;;;;;;;;;;19.50;99.90;;;;;;5035223;28;19939;-62
2021/07/05 07:50:20;;;;;;;;;;;19.80;99.90;;;;;;5040245;28;20085;-62
2021/07/05 07:53:09;;;;;;;;;;;19.70;99.90;;;;;;5035970;28;19950;-62
2021/07/05 07:55:59;;;;;;;;;;;19.20;99.90;;;;;;5031886;28;19960;-62
2021/07/05 07:58:53;;;;;;;;;;;19.20;99.90;;;;;;5034432;28;19929;-62
2021/07/05 08:01:41;;;;;;;;;;;18.90;99.90;;;;;;5035645;28;19961;-62
2021/07/05 08:04:30;;;;;;;;;;;18.90;99.90;;;;;;5059875;28;19931;-62
2021/07/05 08:07:19;;;;;;;;;;;19.20;99.90;;;;;;5055247;28;19925;-61
2021/07/05 08:10:08;;;;;;;;;;;19.20;99.90;;;;;;5054493;28;19933;-62
2021/07/05 08:13:03;;;;;;;;;;;19.60;99.90;;;;;;5052295;28;19925;-62
2021/07/05 08:19:04;;;;;;;;;;;20.20;99.90;;;;;;5054212;28;19924;-62
2021/07/05 08:21:56;;;;;;;;;;;20.80;99.90;;;;;;5064789;28;19955;-63
2021/07/05 08:24:45;;;;;;;;;;;21.20;99.90;;;;;;5059970;28;19925;-62
2021/07/05 08:27:34;;;;;;;;;;;21.20;99.90;;;;;;5064238;28;20031;-62
2021/07/05 08:30:24;;;;;;;;;;;21.20;99.90;;;;;;5054889;28;19947;-62
2021/07/05 08:33:15;;;;;;;;;;;21.20;99.90;;;;;;5057023;28;19975;-62
2021/07/05 08:36:05;;;;;;;;;;;20.30;99.90;;;;;;5055550;28;19975;-62
2021/07/05 08:38:53;;;;;;;;;;;20.40;99.90;;;;;;5053685;28;20013;-62
2021/07/05 08:41:41;;;;;;;;;;;20.70;99.90;;;;;;5051998;28;20452;-62
2021/07/05 08:44:30;;;;;;;;;;;20.90;99.90;;;;;;5053198;28;19931;-62
2021/07/05 08:47:21;;;;;;;;;;;20.90;99.90;;;;;;5013776;28;19925;-62
2021/07/05 08:50:13;;;;;;;;;;;21.00;99.90;;;;;;5023003;28;19932;-62
2021/07/05 08:53:02;;;;;;;;;;;21.30;99.90;;;;;;5013174;28;19952;-62
2021/07/05 08:55:50;;;;;;;;;;;21.80;99.90;;;;;;5011365;28;19932;-62
2021/07/05 08:58:39;;;;;;;;;;;22.90;99.90;;;;;;5007064;28;20024;-62
2021/07/05 09:01:53;;;;;;;;;;;23.50;99.90;;;;;;5028000;28;19925;-62
2021/07/05 09:04:43;;;;;;;;;;;22.30;99.90;;;;;;5027925;28;19925;-62
2021/07/05 09:07:31;;;;;;;;;;;21.70;99.90;;;;;;5039712;28;19926;-62
2021/07/05 09:10:20;;;;;;;;;;;22.00;99.90;;;;;;5040435;28;19933;-62
2021/07/05 09:13:10;;;;;;;;;;;22.50;99.90;;;;;;5035169;28;19925;-64
2021/07/05 09:16:00;;;;;;;;;;;22.80;99.90;;;;;;5031829;28;19925;-62
2021/07/05 09:18:49;;;;;;;;;;;22.60;99.90;;;;;;5040306;28;19925;-62
2021/07/05 09:21:46;;;;;;;;;;;22.40;99.90;;;;;;5042349;28;19956;-62
2021/07/05 09:24:59;;;;;;;;;;;21.80;99.90;;;;;;5043190;28;19925;-62
2021/07/05 09:27:48;;;;;;;;;;;21.70;99.90;;;;;;5044890;28;20340;-62
2021/07/05 09:30:38;;;;;;;;;;;21.90;99.90;;;;;;5028213;28;20470;-64
2021/07/05 09:33:28;;;;;;;;;;;21.70;99.90;;;;;;5042222;28;19932;-62
2021/07/05 09:36:20;;;;;;;;;;;21.70;99.90;;;;;;5041934;28;19925;-62
2021/07/05 09:39:14;;;;;;;;;;;22.00;99.90;;;;;;5048412;28;20015;-62
2021/07/05 09:42:08;;;;;;;;;;;21.60;99.90;;;;;;5034204;28;19975;-62
2021/07/05 09:44:57;;;;;;;;;;;21.50;99.90;;;;;;5036100;28;20305;-62
2021/07/05 09:47:46;;;;;;;;;;;21.30;99.90;;;;;;5044673;28;20486;-63
2021/07/05 09:50:35;;;;;;;;;;;21.00;99.90;;;;;;5058157;28;20012;-63
2021/07/05 09:53:31;;;;;;;;;;;21.00;99.90;;;;;;5039664;28;19947;-62
2021/07/05 09:56:46;;;;;;;;;;;20.90;99.90;;;;;;5044641;28;20377;-62
2021/07/05 10:00:00;;;;;;;;;;;21.10;99.90;;;;;;5051052;28;19963;-61
2021/07/05 10:02:58;;;;;;;;;;;20.70;99.90;;;;;;5050420;28;20467;-62
2021/07/05 10:05:47;;;;;;;;;;;20.80;99.90;;;;;;5045782;28;19967;-62
2021/07/05 10:08:36;;;;;;;;;;;21.00;99.90;;;;;;5043374;28;20011;-62
2021/07/05 10:11:24;;;;;;;;;;;21.00;99.90;;;;;;5036044;28;19992;-62
2021/07/05 10:14:15;;;;;;;;;;;21.10;99.90;;;;;;5051650;28;19928;-62
2021/07/05 10:17:14;;;;;;;;;;;21.10;99.90;;;;;;5040725;28;19925;-62
2021/07/05 10:20:07;;;;;;;;;;;21.20;99.90;;;;;;5051264;28;20103;-62
2021/07/05 10:22:57;;;;;;;;;;;21.30;99.90;;;;;;5048279;28;19933;-62
2021/07/05 10:25:47;;;;;;;;;;;21.20;99.90;;;;;;5049706;28;20012;-62
2021/07/05 10:28:36;;;;;;;;;;;21.40;99.90;;;;;;5052910;28;20315;-63
2021/07/05 10:31:26;;;;;;;;;;;21.50;99.90;;;;;;5052268;28;19932;-62
2021/07/05 10:34:15;;;;;;;;;;;21.10;99.90;;;;;;5054107;28;19925;-63
2021/07/05 10:37:08;;;;;;;;;;;20.90;99.90;;;;;;5049509;28;19936;-62
2021/07/05 10:39:58;;;;;;;;;;;20.70;99.90;;;;;;5051751;28;19924;-65
2021/07/05 10:42:55;;;;;;;;;;;21.40;99.90;;;;;;5053897;28;20233;-62
2021/07/05 10:46:07;;;;;;;;;;;21.70;99.90;;;;;;5037345;28;19933;-62
2021/07/05 10:48:56;;;;;;;;;;;21.80;99.90;;;;;;5049171;28;19932;-62
2021/07/05 10:51:47;;;;;;;;;;;22.00;99.90;;;;;;5038901;28;19929;-62
2021/07/05 10:54:44;;;;;;;;;;;22.30;99.90;;;;;;5031833;28;19932;-63
2021/07/05 10:57:49;;;;;;;;;;;22.30;99.90;;;;;;5039197;28;19925;-62
2021/07/05 11:00:42;;;;;;;;;;;22.40;99.90;;;;;;5042461;28;19979;-62
2021/07/05 11:03:45;;;;;;;;;;;22.10;99.90;;;;;;5039988;28;20110;-63
2021/07/05 11:06:42;;;;;;;;;;;22.50;99.90;;;;;;5039620;28;19947;-62
2021/07/05 11:09:35;;;;;;;;;;;22.70;99.90;;;;;;5059728;28;19925;-63
2021/07/05 11:12:29;;;;;;;;;;;22.80;99.90;;;;;;5058875;28;20343;-63
2021/07/05 11:15:20;;;;;;;;;;;22.90;99.90;;;;;;5037076;28;19964;-62
2021/07/05 11:18:08;;;;;;;;;;;23.00;99.90;;;;;;5047273;28;20032;-63
2021/07/05 11:20:57;;;;;;;;;;;23.10;99.90;;;;;;5043553;28;19937;-61
2021/07/05 11:24:08;;;;;;;;;;;23.30;99.90;;;;;;5046863;28;20354;-62
2021/07/05 11:26:57;;;;;;;;;;;23.30;99.90;;;;;;5040601;28;19925;-62
2021/07/05 11:29:47;;;;;;;;;;;23.30;99.90;;;;;;5045845;28;19936;-64
2021/07/05 11:32:36;;;;;;;;;;;23.70;99.90;;;;;;5014642;28;20012;-62
2021/07/05 11:35:43;;;;;;;;;;;24.00;99.90;;;;;;5017019;28;19993;-62
2021/07/05 11:38:36;;;;;;;;;;;24.30;99.90;;;;;;5011433;28;20020;-63
2021/07/05 11:41:26;;;;;;;;;;;23.90;99.90;;;;;;5011861;28;19932;-62
2021/07/05 11:44:15;;;;;;;;;;;24.20;99.90;;;;;;5014064;28;19925;-63
2021/07/05 11:47:11;;;;;;;;;;;24.80;99.90;;;;;;5011958;28;19972;-62
2021/07/05 11:50:15;;;;;;;;;;;24.30;99.90;;;;;;5013483;28;19933;-61
2021/07/05 11:53:04;;;;;;;;;;;23.90;99.90;;;;;;5021830;28;20005;-64
2021/07/05 11:55:53;;;;;;;;;;;23.50;99.90;;;;;;5014959;28;20369;-61
2021/07/05 11:58:44;;;;;;;;;;;23.20;99.90;;;;;;5017370;28;20015;-61
2021/07/05 12:01:58;;;;;;;;;;;22.40;99.90;;;;;;5029034;28;19967;-61
2021/07/05 12:04:50;;;;;;;;;;;22.50;99.90;;;;;;5040879;28;20294;-64
2021/07/05 12:07:38;;;;;;;;;;;23.10;99.90;;;;;;5047152;28;19936;-63
2021/07/05 12:10:28;;;;;;;;;;;23.50;99.90;;;;;;5039123;28;20244;-62
2021/07/05 12:13:17;;;;;;;;;;;23.50;99.90;;;;;;5039172;28;19932;-62
2021/07/05 12:16:07;;;;;;;;;;;23.60;99.90;;;;;;5031360;28;19990;-62
2021/07/05 12:18:59;;;;;;;;;;;23.80;99.90;;;;;;5035580;28;19929;-62
2021/07/05 12:21:50;;;;;;;;;;;23.90;99.90;;;;;;5035510;28;20404;-61
2021/07/05 12:24:40;;;;;;;;;;;23.10;99.90;;;;;;5039153;28;19936;-62
2021/07/05 12:27:29;;;;;;;;;;;23.70;99.90;;;;;;5040409;28;19932;-62
2021/07/05 12:30:24;;;;;;;;;;;23.40;99.90;;;;;;5034717;28;19935;-62
2021/07/05 12:33:13;;;;;;;;;;;22.80;99.90;;;;;;5041994;28;20095;-62
2021/07/05 12:36:02;;;;;;;;;;;22.60;99.90;;;;;;5040208;28;19928;-62
2021/07/05 12:39:00;;;;;;;;;;;22.60;99.90;;;;;;5044409;28;19972;-62
2021/07/05 12:41:48;;;;;;;;;;;22.40;99.90;;;;;;5038235;28;19933;-62
2021/07/05 12:44:38;;;;;;;;;;;22.20;99.90;;;;;;5036417;28;19972;-62
2021/07/05 12:47:27;;;;;;;;;;;21.90;99.90;;;;;;5022293;28;19933;-62
2021/07/05 12:50:16;;;;;;;;;;;22.00;99.90;;;;;;5033042;28;19925;-62
2021/07/05 12:53:07;;;;;;;;;;;22.30;99.90;;;;;;5034190;28;20004;-62
2021/07/05 12:56:01;;;;;;;;;;;22.00;99.90;;;;;;5028698;28;19960;-62
2021/07/05 12:58:54;;;;;;;;;;;21.90;99.90;;;;;;5031651;28;19925;-62
2021/07/05 13:05:08;;;;;;;;;;;22.10;99.90;;;;;;5028266;28;19931;-62
2021/07/05 13:07:57;;;;;;;;;;;22.20;99.90;;;;;;5031386;28;19929;-62
2021/07/05 13:10:46;;;;;;;;;;;22.50;99.90;;;;;;5036901;28;19926;-62
2021/07/05 13:13:38;;;;;;;;;;;22.50;99.90;;;;;;5038343;28;19931;-62
2021/07/05 13:16:27;;;;;;;;;;;22.40;99.90;;;;;;5028997;28;19948;-62
2021/07/05 13:19:17;;;;;;;;;;;22.30;99.90;;;;;;5034617;28;20317;-62
2021/07/05 13:22:13;;;;;;;;;;;22.10;99.90;;;;;;5030330;28;19925;-62
2021/07/05 13:25:02;;;;;;;;;;;22.10;99.90;;;;;;5035891;28;20018;-62
2021/07/05 13:27:51;;;;;;;;;;;21.90;99.90;;;;;;5040756;28;19925;-62
2021/07/05 13:30:41;;;;;;;;;;;21.50;99.90;;;;;;5029091;28;20009;-62
2021/07/05 13:33:33;;;;;;;;;;;21.50;99.90;;;;;;5031950;28;20342;-62
2021/07/05 13:36:22;;;;;;;;;;;21.30;99.90;;;;;;5017709;28;19925;-62
2021/07/05 13:39:12;;;;;;;;;;;20.90;99.90;;;;;;5020549;28;19968;-62
2021/07/05 13:42:04;;;;;;;;;;;20.70;99.90;;;;;;5033712;28;20332;-62
2021/07/05 13:44:54;;;;;;;;;;;20.70;99.90;;;;;;5035501;28;19995;-62
2021/07/05 13:47:47;;;;;;;;;;;20.90;99.90;;;;;;5053923;28;19925;-63
2021/07/05 13:50:37;;;;;;;;;;;21.10;99.90;;;;;;5053743;28;19932;-62
2021/07/05 13:53:28;;;;;;;;;;;21.00;99.90;;;;;;5053618;28;20014;-62
2021/07/05 13:56:19;;;;;;;;;;;21.10;99.90;;;;;;5056092;28;19925;-61
2021/07/05 13:59:07;;;;;;;;;;;20.90;99.90;;;;;;5054830;28;19936;-62
2021/07/05 14:01:57;;;;;;;;;;;20.80;99.90;;;;;;5047103;28;20327;-62
2021/07/05 14:04:48;;;;;;;;;;;20.70;99.90;;;;;;5054721;28;19987;-62
2021/07/05 14:07:37;;;;;;;;;;;21.20;99.90;;;;;;5047162;28;20024;-62
2021/07/05 14:10:26;;;;;;;;;;;21.40;99.90;;;;;;5053017;28;20271;-61
2021/07/05 14:13:15;;;;;;;;;;;21.50;99.90;;;;;;5058464;28;19928;-62
2021/07/05 14:16:06;;;;;;;;;;;21.50;99.90;;;;;;5047917;28;19925;-61
2021/07/05 14:18:55;;;;;;;;;;;21.60;99.90;;;;;;5051168;28;19928;-62
2021/07/05 14:21:45;;;;;;;;;;;21.60;99.90;;;;;;5052789;28;19928;-65
2021/07/05 14:24:34;;;;;;;;;;;21.90;99.90;;;;;;5054212;28;19925;-62
2021/07/05 14:27:23;;;;;;;;;;;21.90;99.90;;;;;;5060392;28;19932;-62
2021/07/05 14:30:12;;;;;;;;;;;22.00;99.90;;;;;;5055977;28;19935;-61
2021/07/05 14:33:00;;;;;;;;;;;21.70;99.90;;;;;;5064265;28;20023;-62
2021/07/05 14:35:49;;;;;;;;;;;21.80;99.90;;;;;;5064002;28;19964;-62
2021/07/05 14:38:39;;;;;;;;;;;22.00;99.90;;;;;;5066613;28;20032;-62
2021/07/05 14:41:28;;;;;;;;;;;22.20;99.90;;;;;;5060814;28;20304;-62
2021/07/05 14:44:17;;;;;;;;;;;22.20;99.90;;;;;;5058225;28;19925;-62
2021/07/05 14:47:05;;;;;;;;;;;21.90;99.90;;;;;;5025779;28;20018;-64
2021/07/05 14:49:54;;;;;;;;;;;21.40;99.90;;;;;;5032915;28;20020;-61
2021/07/05 14:52:43;;;;;;;;;;;21.50;99.90;;;;;;5037072;28;20260;-62
2021/07/05 14:55:34;;;;;;;;;;;21.80;99.90;;;;;;5033131;28;19929;-62
2021/07/05 14:58:23;;;;;;;;;;;22.10;99.90;;;;;;5030729;28;19939;-62
2021/07/05 15:01:12;;;;;;;;;;;22.10;99.90;;;;;;5026725;28;19929;-62
2021/07/05 15:04:01;;;;;;;;;;;22.40;99.90;;;;;;5030847;28;19926;-62
2021/07/05 15:06:54;;;;;;;;;;;22.40;99.90;;;;;;5032596;28;19925;-62
2021/07/05 15:09:43;;;;;;;;;;;22.40;99.90;;;;;;5019986;28;19936;-62
2021/07/05 15:12:34;;;;;;;;;;;22.20;99.90;;;;;;5044714;28;19937;-62
2021/07/05 15:15:23;;;;;;;;;;;22.10;99.90;;;;;;5029220;28;19933;-62
2021/07/05 15:18:11;;;;;;;;;;;22.00;99.90;;;;;;5044750;28;19925;-62
2021/07/05 15:21:00;;;;;;;;;;;22.00;99.90;;;;;;5019195;28;19929;-63
2021/07/05 15:23:49;;;;;;;;;;;21.90;99.90;;;;;;5021193;28;19996;-62
2021/07/05 15:26:38;;;;;;;;;;;22.10;99.90;;;;;;5036213;28;20390;-62
2021/07/05 15:29:28;;;;;;;;;;;22.30;99.90;;;;;;5045679;28;19928;-62
2021/07/05 15:32:16;;;;;;;;;;;22.10;99.90;;;;;;5043724;28;19935;-62
2021/07/05 15:35:06;;;;;;;;;;;21.90;99.90;;;;;;5044828;28;19925;-62
2021/07/05 15:37:59;;;;;;;;;;;21.40;99.90;;;;;;5045415;28;19929;-62
2021/07/05 15:40:47;;;;;;;;;;;21.40;99.90;;;;;;5035147;28;19931;-61
2021/07/05 15:43:36;;;;;;;;;;;21.30;99.90;;;;;;5041923;28;19925;-62
2021/07/05 15:46:26;;;;;;;;;;;21.20;99.90;;;;;;5039394;28;19931;-61
2021/07/05 15:49:14;;;;;;;;;;;21.20;99.90;;;;;;5057689;28;20018;-62
2021/07/05 15:52:03;;;;;;;;;;;21.20;99.90;;;;;;5061530;28;19928;-62
2021/07/05 15:54:52;;;;;;;;;;;21.10;99.90;;;;;;5055790;28;19924;-61
2021/07/05 15:57:41;;;;;;;;;;;21.10;99.90;;;;;;5054136;28;19925;-62
2021/07/05 16:00:30;;;;;;;;;;;21.10;99.90;;;;;;5049480;28;20332;-61
2021/07/05 16:03:22;;;;;;;;;;;21.20;99.90;;;;;;5027350;28;19931;-61
2021/07/05 16:06:11;;;;;;;;;;;21.20;99.90;;;;;;5032561;28;19936;-61
2021/07/05 16:09:00;;;;;;;;;;;21.30;99.90;;;;;;5034168;28;19936;-61
2021/07/05 16:11:48;;;;;;;;;;;21.30;99.90;;;;;;5029887;28;19936;-62
2021/07/05 16:14:38;;;;;;;;;;;21.40;99.90;;;;;;5030415;28;19948;-62
2021/07/05 16:17:27;;;;;;;;;;;21.40;99.90;;;;;;5024545;28;20015;-62
2021/07/05 16:20:17;;;;;;;;;;;21.50;99.90;;;;;;5025763;28;19925;-62
2021/07/05 16:23:30;;;;;;;;;;;21.50;99.90;;;;;;5033507;28;19925;-62
2021/07/05 16:26:19;;;;;;;;;;;21.60;99.90;;;;;;5034165;28;20011;-62
2021/07/05 16:29:07;;;;;;;;;;;21.50;99.90;;;;;;5038857;28;20360;-61
2021/07/05 16:31:56;;;;;;;;;;;21.40;99.90;;;;;;5026274;28;19959;-62
2021/07/05 16:34:45;;;;;;;;;;;21.40;99.90;;;;;;5034748;28;20396;-61
2021/07/05 16:37:35;;;;;;;;;;;21.40;99.90;;;;;;5037686;28;19936;-61
2021/07/05 16:40:23;;;;;;;;;;;21.40;99.90;;;;;;5028893;28;21416;-61
2021/07/05 16:43:12;;;;;;;;;;;21.30;99.90;;;;;;5043022;28;20365;-61